createdAt,value
2018-12-27T00:01:27.513Z,10.72
2018-12-27T00:03:56.104Z,10.60
2018-12-27T00:06:24.661Z,11.10
2018-12-27T00:08:53.243Z,9.25
2018-12-27T00:11:21.804Z,10.15
2018-12-27T00:13:50.392Z,11.15
2018-12-27T00:16:18.944Z,11.45
2018-12-27T00:18:47.527Z,11.50
2018-12-27T00:21:16.087Z,10.28
2018-12-27T00:23:44.671Z,11.93
2018-12-27T00:26:13.232Z,11.20
2018-12-27T00:28:41.821Z,12.10
2018-12-27T00:31:10.532Z,12.30
2018-12-27T00:33:39.273Z,12.65
2018-12-27T00:36:07.988Z,10.20
2018-12-27T00:38:36.724Z,13.03
2018-12-27T00:41:05.436Z,10.25
2018-12-27T00:43:34.181Z,12.33
2018-12-27T00:46:02.889Z,11.40
2018-12-27T00:48:31.601Z,11.18
2018-12-27T00:51:00.336Z,9.93
2018-12-27T00:53:29.046Z,9.68
2018-12-27T00:55:57.824Z,11.28
2018-12-27T00:58:26.496Z,11.70
2018-12-27T01:00:55.245Z,11.18
2018-12-27T01:03:23.954Z,11.75
2018-12-27T01:05:52.700Z,11.55
2018-12-27T01:08:21.412Z,12.13
2018-12-27T01:10:50.157Z,10.70
2018-12-27T01:13:18.861Z,11.73
2018-12-27T01:15:47.604Z,11.60
2018-12-27T01:18:16.312Z,11.03
2018-12-27T01:20:45.052Z,10.68
2018-12-27T01:23:13.763Z,10.35
2018-12-27T01:25:42.508Z,10.70
2018-12-27T01:28:11.220Z,10.28
2018-12-27T01:30:39.960Z,12.00
2018-12-27T01:33:08.677Z,12.68
2018-12-27T01:35:37.417Z,11.50
2018-12-27T01:38:06.129Z,11.45
2018-12-27T01:40:34.867Z,10.00
2018-12-27T01:43:03.592Z,10.53
2018-12-27T01:45:32.315Z,10.68
2018-12-27T01:48:01.033Z,10.32
2018-12-27T01:50:29.774Z,12.40
2018-12-27T01:52:58.485Z,12.88
2018-12-27T01:55:27.240Z,11.10
2018-12-27T01:57:55.957Z,10.72
2018-12-27T02:00:24.669Z,11.08
2018-12-27T02:02:53.404Z,11.70
2018-12-27T02:05:22.121Z,11.22
2018-12-27T02:07:50.859Z,12.15
2018-12-27T02:10:19.564Z,10.88
2018-12-27T02:12:48.304Z,9.33
2018-12-27T02:15:17.021Z,9.93
2018-12-27T02:17:45.761Z,13.10
2018-12-27T02:20:14.481Z,13.10
2018-12-27T02:22:43.218Z,9.98
2018-12-27T02:25:11.929Z,11.18
2018-12-27T02:27:40.666Z,8.70
2018-12-27T02:30:09.376Z,9.05
2018-12-27T02:32:38.128Z,10.13
2018-12-27T02:35:06.836Z,11.20
2018-12-27T02:37:35.577Z,9.43
2018-12-27T02:40:04.289Z,9.78
2018-12-27T02:42:33.029Z,9.65
2018-12-27T02:45:01.743Z,10.23
2018-12-27T02:47:30.490Z,11.25
2018-12-27T02:49:59.206Z,11.60
2018-12-27T02:52:27.949Z,12.53
2018-12-27T02:54:56.663Z,11.00
2018-12-27T02:57:25.401Z,12.30
2018-12-27T02:59:54.111Z,12.53
2018-12-27T03:02:22.860Z,10.88
2018-12-27T03:04:51.576Z,10.58
2018-12-27T03:07:20.288Z,12.35
2018-12-27T03:09:49.045Z,11.65
2018-12-27T03:12:17.753Z,11.90
2018-12-27T03:14:46.488Z,11.78
2018-12-27T03:17:15.207Z,11.97
2018-12-27T03:19:43.945Z,13.00
2018-12-27T03:22:12.663Z,11.38
2018-12-27T03:24:41.399Z,11.30
2018-12-27T03:27:10.179Z,12.10
2018-12-27T03:29:38.924Z,12.68
2018-12-27T03:32:07.648Z,12.90
2018-12-27T03:34:36.377Z,11.75
2018-12-27T03:37:05.096Z,12.88
2018-12-27T03:39:33.945Z,11.65
2018-12-27T03:42:02.655Z,10.38
2018-12-27T03:44:31.389Z,11.08
2018-12-27T03:47:00.109Z,10.23
2018-12-27T03:49:28.852Z,11.33
2018-12-27T03:51:57.564Z,11.12
2018-12-27T03:54:26.299Z,14.03
2018-12-27T03:56:55.016Z,11.68
2018-12-27T03:59:23.772Z,11.63
2018-12-27T04:01:52.477Z,10.58
2018-12-27T04:04:21.215Z,10.78
2018-12-27T04:06:49.928Z,12.70
2018-12-27T04:09:18.670Z,11.35
2018-12-27T04:11:47.380Z,11.65
2018-12-27T04:14:16.092Z,12.07
2018-12-27T04:16:44.691Z,12.43
2018-12-27T04:19:13.240Z,13.08
2018-12-27T04:21:41.833Z,11.90
2018-12-27T04:24:10.726Z,12.73
2018-12-27T04:26:39.326Z,15.60
2018-12-27T04:29:07.881Z,13.13
2018-12-27T04:31:36.905Z,12.35
2018-12-27T04:34:09.430Z,12.05
2018-12-27T04:36:36.172Z,11.80
2018-12-27T04:39:06.564Z,14.03
2018-12-27T04:41:35.699Z,11.95
2018-12-27T04:44:04.585Z,11.83
2018-12-27T04:46:33.176Z,10.88
2018-12-27T04:49:01.753Z,11.88
2018-12-27T04:51:30.413Z,12.90
2018-12-27T04:53:58.980Z,12.60
2018-12-27T04:56:27.572Z,11.55
2018-12-27T04:58:56.196Z,11.88
2018-12-27T05:01:24.720Z,11.68
2018-12-27T05:03:53.279Z,12.07
2018-12-27T05:06:21.864Z,10.82
2018-12-27T05:08:50.424Z,13.85
2018-12-27T05:11:19.026Z,12.20
2018-12-27T05:13:47.565Z,10.38
2018-12-27T05:16:16.157Z,13.08
2018-12-27T05:18:44.724Z,13.03
2018-12-27T05:21:13.311Z,13.62
2018-12-27T05:23:41.871Z,11.70
2018-12-27T05:26:10.464Z,11.28
2018-12-27T05:28:39.029Z,11.55
2018-12-27T05:31:07.606Z,13.70
2018-12-27T05:33:36.164Z,13.70
2018-12-27T05:36:04.797Z,13.22
2018-12-27T05:38:33.383Z,14.47
2018-12-27T05:41:01.944Z,11.63
2018-12-27T05:43:30.536Z,13.25
2018-12-27T05:45:59.096Z,9.58
2018-12-27T05:48:27.680Z,9.88
2018-12-27T05:50:56.244Z,9.08
2018-12-27T05:53:24.897Z,10.53
2018-12-27T05:55:53.454Z,10.95
2018-12-27T05:58:22.045Z,11.97
2018-12-27T06:00:50.605Z,16.70
2018-12-27T06:03:19.197Z,15.85
2018-12-27T06:05:47.756Z,18.85
2018-12-27T06:08:16.343Z,11.75
2018-12-27T06:10:44.900Z,12.47
2018-12-27T06:13:13.488Z,12.70
2018-12-27T06:15:42.040Z,10.63
2018-12-27T06:18:10.630Z,10.68
2018-12-27T06:20:39.258Z,10.72
2018-12-27T06:23:07.845Z,10.20
2018-12-27T06:25:36.454Z,11.90
2018-12-27T06:28:04.992Z,10.78
2018-12-27T06:30:33.557Z,12.95
2018-12-27T06:33:02.144Z,13.32
2018-12-27T06:35:30.700Z,14.53
2018-12-27T06:37:59.287Z,15.68
2018-12-27T06:40:27.857Z,18.25
2018-12-27T06:42:56.429Z,19.23
2018-12-27T06:45:25.021Z,18.98
2018-12-27T06:47:53.584Z,18.73
2018-12-27T06:50:22.181Z,19.02
2018-12-27T06:52:50.742Z,18.57
2018-12-27T06:55:19.340Z,19.57
2018-12-27T06:57:47.904Z,19.87
2018-12-27T07:00:16.496Z,17.65
2018-12-27T07:02:45.056Z,14.60
2018-12-27T07:05:13.651Z,18.12
2018-12-27T07:07:42.204Z,19.82
2018-12-27T07:10:10.800Z,19.90
2018-12-27T07:12:39.378Z,16.50
2018-12-27T07:15:08.028Z,18.25
2018-12-27T07:17:36.588Z,18.42
2018-12-27T07:20:05.453Z,29.10
2018-12-27T07:22:34.021Z,19.95
2018-12-27T07:25:02.618Z,20.17
2018-12-27T07:27:31.180Z,20.45
2018-12-27T07:29:59.764Z,19.77
2018-12-27T07:32:28.336Z,20.92
2018-12-27T07:34:56.923Z,19.42
2018-12-27T07:37:25.485Z,19.20
2018-12-27T07:39:54.089Z,18.37
2018-12-27T07:42:22.656Z,19.35
2018-12-27T07:44:51.245Z,20.15
2018-12-27T07:47:19.922Z,18.55
2018-12-27T07:49:48.473Z,20.77
2018-12-27T07:52:17.039Z,21.73
2018-12-27T07:54:45.624Z,22.13
2018-12-27T07:57:14.302Z,19.42
2018-12-27T07:59:42.884Z,21.65
2018-12-27T08:02:11.481Z,19.12
2018-12-27T08:04:40.041Z,21.23
2018-12-27T08:07:08.639Z,22.40
2018-12-27T08:09:37.193Z,21.57
2018-12-27T08:12:05.789Z,22.27
2018-12-27T08:14:34.354Z,22.17
2018-12-27T08:17:02.941Z,22.05
2018-12-27T08:19:31.500Z,23.00
2018-12-27T08:22:00.096Z,22.20
2018-12-27T08:24:28.661Z,19.17
2018-12-27T08:26:57.249Z,23.95
2018-12-27T08:29:25.816Z,24.00
2018-12-27T08:31:54.405Z,23.83
2018-12-27T08:34:22.968Z,26.57
2018-12-27T08:36:51.552Z,22.70
2018-12-27T08:39:20.113Z,21.33
2018-12-27T08:41:48.715Z,23.32
2018-12-27T08:44:17.264Z,20.32
2018-12-27T08:46:45.860Z,19.62
2018-12-27T08:49:14.424Z,17.98
2018-12-27T08:51:43.013Z,22.52
2018-12-27T08:54:11.577Z,20.15
2018-12-27T08:56:40.239Z,23.00
2018-12-27T08:59:08.792Z,21.50
2018-12-27T09:01:37.391Z,23.52
2018-12-27T09:04:05.949Z,23.12
2018-12-27T09:06:34.539Z,24.85
2018-12-27T09:09:04.565Z,31.07
2018-12-27T09:11:33.152Z,32.63
2018-12-27T09:14:01.879Z,31.62
2018-12-27T09:16:30.478Z,32.63
2018-12-27T09:18:59.032Z,30.80
2018-12-27T09:21:27.638Z,31.25
2018-12-27T09:23:56.196Z,31.70
2018-12-27T09:26:24.765Z,29.55
2018-12-27T09:28:53.348Z,26.40
2018-12-27T09:31:21.917Z,28.62
2018-12-27T09:33:50.511Z,29.72
2018-12-27T09:36:19.068Z,27.22
2018-12-27T09:38:47.654Z,29.10
2018-12-27T09:41:16.207Z,25.88
2018-12-27T09:43:44.820Z,31.48
2018-12-27T09:46:13.373Z,27.30
2018-12-27T09:48:41.961Z,28.10
2018-12-27T09:51:10.525Z,28.80
2018-12-27T09:53:39.120Z,30.68
2018-12-27T09:56:07.689Z,32.13
2018-12-27T09:58:36.300Z,32.73
2018-12-27T10:01:04.866Z,31.75
2018-12-27T10:03:33.458Z,31.80
2018-12-27T10:06:02.088Z,33.45
2018-12-27T10:08:30.685Z,32.70
2018-12-27T10:10:59.311Z,33.45
2018-12-27T10:13:27.900Z,33.92
2018-12-27T10:15:56.464Z,33.65
2018-12-27T10:18:25.056Z,33.28
2018-12-27T10:20:53.614Z,32.88
2018-12-27T10:23:22.199Z,33.88
2018-12-27T10:25:50.765Z,36.25
2018-12-27T10:28:19.360Z,33.02
2018-12-27T10:30:47.924Z,35.33
2018-12-27T10:33:16.546Z,34.75
2018-12-27T10:35:45.114Z,36.23
2018-12-27T10:38:13.671Z,33.30
2018-12-27T10:40:42.265Z,29.07
2018-12-27T10:43:10.828Z,31.65
2018-12-27T10:45:39.425Z,33.45
2018-12-27T10:48:07.993Z,34.33
2018-12-27T10:50:36.588Z,37.83
2018-12-27T10:53:05.148Z,29.50
2018-12-27T10:55:33.745Z,30.72
2018-12-27T10:58:02.312Z,29.07
2018-12-27T11:00:30.913Z,30.10
2018-12-27T11:02:59.480Z,27.65
2018-12-27T11:05:28.086Z,26.00
2018-12-27T11:07:56.648Z,26.75
2018-12-27T11:10:25.245Z,31.68
2018-12-27T11:12:53.811Z,27.32
2018-12-27T11:15:22.405Z,33.85
2018-12-27T11:17:50.972Z,29.02
2018-12-27T11:20:19.586Z,29.92
2018-12-27T11:22:48.157Z,29.55
2018-12-27T11:25:17.629Z,30.25
2018-12-27T11:27:46.184Z,32.60
2018-12-27T11:30:14.779Z,29.82
2018-12-27T11:32:43.333Z,29.15
2018-12-27T11:35:11.933Z,30.20
2018-12-27T11:37:40.500Z,35.25
2018-12-27T11:40:09.165Z,29.42
2018-12-27T11:42:37.725Z,33.07
2018-12-27T11:45:07.252Z,29.03
2018-12-27T11:47:35.892Z,30.03
2018-12-27T11:50:05.119Z,24.83
2018-12-27T11:52:33.681Z,30.17
2018-12-27T11:55:02.269Z,29.37
2018-12-27T11:57:30.834Z,30.17
2018-12-27T11:59:59.401Z,32.90
2018-12-27T12:02:31.315Z,29.50
2018-12-27T12:04:58.192Z,31.17
2018-12-27T12:07:26.849Z,30.90
2018-12-27T12:09:55.414Z,28.40
2018-12-27T12:12:24.005Z,29.77
2018-12-27T12:14:52.572Z,29.02
2018-12-27T12:17:21.162Z,32.30
2018-12-27T12:19:49.719Z,31.40
2018-12-27T12:22:18.319Z,29.37
2018-12-27T12:24:46.963Z,31.70
2018-12-27T12:27:15.554Z,28.73
2018-12-27T12:29:44.177Z,30.27
2018-12-27T12:32:12.769Z,32.77
2018-12-27T12:34:41.473Z,30.37
2018-12-27T12:37:13.899Z,30.83
2018-12-27T12:39:40.404Z,32.40
2018-12-27T12:42:09.001Z,29.93
2018-12-27T12:44:37.561Z,29.10
2018-12-27T12:47:06.156Z,32.63
2018-12-27T12:49:34.720Z,30.83
2018-12-27T12:52:03.304Z,34.70
2018-12-27T12:54:31.864Z,29.60
2018-12-27T12:57:00.452Z,31.70
2018-12-27T12:59:29.021Z,29.75
2018-12-27T13:01:57.614Z,31.37
2018-12-27T13:04:26.173Z,31.00
2018-12-27T13:06:54.736Z,29.80
2018-12-27T13:09:23.335Z,31.20
2018-12-27T13:11:51.895Z,29.37
2018-12-27T13:14:20.492Z,28.83
2018-12-27T13:16:49.049Z,29.53
2018-12-27T13:19:17.633Z,29.27
2018-12-27T13:21:46.197Z,27.53
2018-12-27T13:24:14.793Z,29.00
2018-12-27T13:26:43.352Z,28.73
2018-12-27T13:29:11.945Z,29.57
2018-12-27T13:31:40.513Z,29.40
2018-12-27T13:34:09.100Z,30.77
2018-12-27T13:36:37.661Z,31.67
2018-12-27T13:39:06.893Z,28.67
2018-12-27T13:41:35.521Z,27.07
2018-12-27T13:44:04.180Z,27.77
2018-12-27T13:46:32.739Z,29.97
2018-12-27T13:49:01.333Z,27.03
2018-12-27T13:51:29.900Z,29.47
2018-12-27T13:53:58.498Z,28.40
2018-12-27T13:56:27.060Z,27.10
2018-12-27T13:58:55.656Z,27.80
2018-12-27T14:01:24.216Z,30.30
2018-12-27T14:03:52.812Z,25.33
2018-12-27T14:06:21.377Z,27.37
2018-12-27T14:08:49.968Z,28.33
2018-12-27T14:11:18.545Z,25.60
2018-12-27T14:13:47.132Z,26.90
2018-12-27T14:16:15.764Z,26.67
2018-12-27T14:18:44.340Z,25.70
2018-12-27T14:21:12.911Z,32.40
2018-12-27T14:23:41.473Z,28.20
2018-12-27T14:26:10.059Z,26.77
2018-12-27T14:28:38.619Z,23.20
2018-12-27T14:31:07.380Z,25.67
2018-12-27T14:33:35.942Z,28.13
2018-12-27T14:36:04.606Z,26.97
2018-12-27T14:38:33.162Z,25.20
2018-12-27T14:41:01.750Z,28.77
2018-12-27T14:43:30.312Z,34.03
2018-12-27T14:45:58.901Z,30.93
2018-12-27T14:48:27.461Z,31.30
2018-12-27T14:50:56.052Z,28.17
2018-12-27T14:53:24.621Z,26.50
2018-12-27T14:55:53.208Z,25.40
2018-12-27T14:58:21.769Z,25.03
2018-12-27T15:00:50.364Z,26.07
2018-12-27T15:03:18.919Z,25.07
2018-12-27T15:05:47.508Z,28.03
2018-12-27T15:08:16.063Z,30.93
2018-12-27T15:10:44.653Z,28.83
2018-12-27T15:13:13.289Z,25.65
2018-12-27T15:15:41.880Z,26.93
2018-12-27T15:18:10.444Z,27.23
2018-12-27T15:20:39.036Z,24.50
2018-12-27T15:23:07.595Z,21.63
2018-12-27T15:25:36.249Z,24.50
2018-12-27T15:28:04.895Z,27.63
2018-12-27T15:30:56.301Z,25.40
2018-12-27T15:33:20.409Z,26.03
2018-12-27T15:35:49.000Z,29.83
2018-12-27T15:38:17.560Z,27.17
2018-12-27T15:40:46.136Z,26.57
2018-12-27T15:43:14.731Z,26.02
2018-12-27T15:45:43.302Z,27.67
2018-12-27T15:48:11.917Z,27.15
2018-12-27T15:50:40.624Z,29.77
2018-12-27T15:53:09.234Z,27.45
2018-12-27T15:55:37.791Z,24.32
2018-12-27T15:58:06.384Z,25.55
2018-12-27T16:00:34.953Z,25.60
2018-12-27T16:03:03.612Z,26.30
2018-12-27T16:05:32.173Z,25.53
2018-12-27T16:08:00.772Z,25.62
2018-12-27T16:10:29.332Z,22.17
2018-12-27T16:12:57.932Z,23.83
2018-12-27T16:15:26.496Z,24.63
2018-12-27T16:17:55.083Z,25.80
2018-12-27T16:20:23.658Z,24.02
2018-12-27T16:22:52.248Z,29.25
2018-12-27T16:25:20.819Z,25.30
2018-12-27T16:27:49.413Z,26.27
2018-12-27T16:30:17.977Z,22.27
2018-12-27T16:32:46.544Z,25.02
2018-12-27T16:35:15.136Z,23.70
2018-12-27T16:37:43.699Z,23.80
2018-12-27T16:40:12.288Z,24.92
2018-12-27T16:42:41.088Z,24.57
2018-12-27T16:45:09.752Z,25.27
2018-12-27T16:47:38.322Z,30.10
2018-12-27T16:50:08.752Z,33.73
2018-12-27T16:52:37.319Z,30.23
2018-12-27T16:55:05.989Z,27.02
2018-12-27T16:57:34.601Z,25.27
2018-12-27T17:00:03.621Z,26.35
2018-12-27T17:02:32.257Z,30.90
2018-12-27T17:05:00.856Z,27.45
2018-12-27T17:07:29.420Z,26.50
2018-12-27T17:09:58.020Z,25.75
2018-12-27T17:12:26.579Z,25.65
2018-12-27T17:14:55.171Z,28.47
2018-12-27T17:17:23.744Z,28.55
2018-12-27T17:19:52.345Z,26.05
2018-12-27T17:22:20.916Z,27.77
2018-12-27T17:24:49.483Z,25.70
2018-12-27T17:27:18.082Z,27.87
2018-12-27T17:29:46.637Z,24.72
2018-12-27T17:32:15.234Z,25.97
2018-12-27T17:34:43.801Z,28.07
2018-12-27T17:37:12.399Z,22.65
2018-12-27T17:39:40.967Z,22.60
2018-12-27T17:42:09.562Z,25.23
2018-12-27T17:44:38.125Z,26.55
2018-12-27T17:47:06.794Z,25.80
2018-12-27T17:49:35.352Z,26.95
2018-12-27T17:52:04.028Z,27.80
2018-12-27T17:54:32.592Z,28.12
2018-12-27T17:57:01.189Z,22.50
2018-12-27T17:59:29.759Z,26.30
2018-12-27T18:01:58.411Z,24.05
2018-12-27T18:04:26.985Z,23.38
2018-12-27T18:06:55.580Z,24.18
2018-12-27T18:09:24.144Z,26.25
2018-12-27T18:11:52.741Z,28.23
2018-12-27T18:14:21.308Z,29.35
2018-12-27T18:16:49.900Z,26.23
2018-12-27T18:19:18.513Z,28.38
2018-12-27T18:21:47.104Z,31.10
2018-12-27T18:24:15.751Z,31.00
2018-12-27T18:26:44.336Z,35.70
2018-12-27T18:29:12.899Z,31.55
2018-12-27T18:31:41.464Z,29.92
2018-12-27T18:34:10.064Z,32.50
2018-12-27T18:36:38.626Z,29.48
2018-12-27T18:39:07.220Z,33.13
2018-12-27T18:41:35.795Z,32.93
2018-12-27T18:44:04.464Z,32.33
2018-12-27T18:46:33.035Z,32.03
2018-12-27T18:49:01.632Z,37.35
2018-12-27T18:51:30.229Z,33.23
2018-12-27T18:53:58.784Z,33.73
2018-12-27T18:56:27.353Z,30.55
2018-12-27T18:58:55.951Z,35.80
2018-12-27T19:01:24.510Z,29.05
2018-12-27T19:03:53.114Z,29.90
2018-12-27T19:06:21.672Z,31.12
2018-12-27T19:08:50.346Z,32.25
2018-12-27T19:11:54.887Z,34.53
2018-12-27T19:14:23.471Z,31.45
2018-12-27T19:16:52.033Z,29.40
2018-12-27T19:19:20.626Z,28.90
2018-12-27T19:21:49.184Z,35.33
2018-12-27T19:24:17.773Z,30.88
2018-12-27T19:26:46.343Z,30.25
2018-12-27T19:29:14.937Z,32.42
2018-12-27T19:31:43.590Z,28.92
2018-12-27T19:34:12.193Z,28.83
2018-12-27T19:36:40.825Z,30.57
2018-12-27T19:39:09.425Z,31.33
2018-12-27T19:41:37.989Z,29.40
2018-12-27T19:44:06.582Z,31.27
2018-12-27T19:46:35.150Z,33.53
2018-12-27T19:49:03.746Z,34.35
2018-12-27T19:51:32.373Z,32.23
2018-12-27T19:54:00.970Z,35.88
2018-12-27T19:56:29.592Z,34.40
2018-12-27T19:58:58.193Z,30.10
2018-12-27T20:01:26.745Z,33.95
2018-12-27T20:03:55.338Z,32.78
2018-12-27T20:06:23.901Z,32.78
2018-12-27T20:08:52.493Z,31.55
2018-12-27T20:11:21.128Z,37.65
2018-12-27T20:13:49.720Z,37.08
2018-12-27T20:16:18.288Z,36.48
2018-12-27T20:18:46.853Z,35.75
2018-12-27T20:21:15.449Z,35.92
2018-12-27T20:23:44.012Z,33.50
2018-12-27T20:26:12.706Z,40.12
2018-12-27T20:28:41.344Z,37.63
2018-12-27T20:31:10.101Z,37.58
2018-12-27T20:33:38.653Z,38.98
2018-12-27T20:36:07.246Z,41.85
2018-12-27T20:38:35.804Z,35.30
2018-12-27T20:41:04.399Z,34.27
2018-12-27T20:43:32.960Z,37.85
2018-12-27T20:46:01.556Z,37.70
2018-12-27T20:48:30.120Z,40.80
2018-12-27T20:50:58.708Z,42.70
2018-12-27T20:53:27.273Z,39.00
2018-12-27T20:55:55.899Z,44.42
2018-12-27T20:58:24.543Z,44.90
2018-12-27T21:00:53.148Z,43.15
2018-12-27T21:03:21.707Z,40.92
2018-12-27T21:05:50.309Z,41.23
2018-12-27T21:08:18.880Z,36.58
2018-12-27T21:10:47.478Z,42.55
2018-12-27T21:13:16.039Z,44.03
2018-12-27T21:15:44.699Z,39.92
2018-12-27T21:18:13.275Z,40.75
2018-12-27T21:20:41.903Z,42.00
2018-12-27T21:23:10.480Z,35.03
2018-12-27T21:25:39.066Z,35.95
2018-12-27T21:28:07.652Z,42.93
2018-12-27T21:30:36.233Z,40.78
2018-12-27T21:33:04.832Z,41.08
2018-12-27T21:35:33.387Z,41.92
2018-12-27T21:38:01.993Z,43.60
2018-12-27T21:40:30.601Z,39.65
2018-12-27T21:42:59.187Z,42.75
2018-12-27T21:45:27.756Z,46.00
2018-12-27T21:47:56.348Z,44.10
2018-12-27T21:50:24.912Z,65.78
2018-12-27T21:52:53.503Z,84.55
2018-12-27T21:55:22.135Z,55.50
2018-12-27T21:57:50.723Z,46.08
2018-12-27T22:00:19.447Z,41.65
2018-12-27T22:02:48.041Z,49.53
2018-12-27T22:05:16.604Z,42.45
2018-12-27T22:07:45.207Z,47.58
2018-12-27T22:10:13.841Z,43.55
2018-12-27T22:12:42.371Z,44.05
2018-12-27T22:15:10.927Z,47.40
2018-12-27T22:17:39.588Z,41.55
2018-12-27T22:20:08.153Z,49.00
2018-12-27T22:22:36.740Z,43.52
2018-12-27T22:25:05.741Z,40.55
2018-12-27T22:27:34.308Z,41.15
2018-12-27T22:30:02.904Z,41.37
2018-12-27T22:32:31.469Z,42.13
2018-12-27T22:35:00.097Z,41.13
2018-12-27T22:37:28.630Z,39.65
2018-12-27T22:39:57.216Z,40.58
2018-12-27T22:42:25.779Z,41.18
2018-12-27T22:44:54.368Z,41.70
2018-12-27T22:47:22.937Z,44.40
2018-12-27T22:49:51.524Z,44.75
2018-12-27T22:52:20.088Z,44.85
2018-12-27T22:54:48.680Z,44.27
2018-12-27T22:57:17.245Z,42.00
2018-12-27T22:59:45.851Z,42.17
2018-12-27T23:02:14.470Z,43.10
2018-12-27T23:04:43.127Z,42.27
2018-12-27T23:07:11.688Z,43.28
2018-12-27T23:09:40.279Z,39.60
2018-12-27T23:12:08.843Z,41.77
2018-12-27T23:14:37.432Z,42.83
2018-12-27T23:17:05.997Z,38.78
2018-12-27T23:19:34.600Z,42.67
2018-12-27T23:22:03.160Z,41.33
2018-12-27T23:24:31.720Z,39.53
2018-12-27T23:27:00.308Z,40.83
2018-12-27T23:29:28.877Z,45.25
2018-12-27T23:31:57.456Z,39.70
2018-12-27T23:34:26.020Z,41.98
2018-12-27T23:36:54.607Z,44.00
2018-12-27T23:39:23.177Z,41.65
2018-12-27T23:41:51.769Z,41.85
2018-12-27T23:44:20.341Z,42.03
2018-12-27T23:46:48.929Z,41.20
2018-12-27T23:49:17.494Z,43.90
2018-12-27T23:51:46.087Z,40.25
2018-12-27T23:54:14.648Z,45.35
2018-12-27T23:56:43.238Z,46.28
2018-12-27T23:59:11.798Z,42.60
